createdAt,value
2023-01-19T00:00:01.087Z,1.1
2023-01-19T00:01:01.096Z,1.1
2023-01-19T00:02:01.118Z,1.1
2023-01-19T00:03:01.154Z,1.1
2023-01-19T00:04:01.095Z,1.1
2023-01-19T00:05:01.313Z,1.1
2023-01-19T00:06:01.170Z,1.1
2023-01-19T00:07:01.127Z,1.1
2023-01-19T00:08:01.566Z,1.1
2023-01-19T00:09:01.150Z,1.1
2023-01-19T00:10:01.205Z,1.1
2023-01-19T00:11:01.144Z,1.1
2023-01-19T00:12:01.229Z,1.1
2023-01-19T00:13:01.847Z,1
2023-01-19T00:14:02.039Z,1.1
2023-01-19T00:15:02.063Z,1
2023-01-19T00:16:01.448Z,1
2023-01-19T00:17:01.244Z,1.1
2023-01-19T00:18:01.066Z,1
2023-01-19T00:19:01.103Z,1
2023-01-19T00:20:01.503Z,1
2023-01-19T00:21:01.117Z,1
2023-01-19T00:22:01.105Z,1
2023-01-19T00:23:01.587Z,1
2023-01-19T00:24:01.534Z,1
2023-01-19T00:25:02.244Z,1
2023-01-19T00:26:01.647Z,1
2023-01-19T00:27:00.624Z,1
2023-01-19T00:28:01.689Z,1
2023-01-19T00:29:01.246Z,1
2023-01-19T00:30:01.245Z,1
2023-01-19T00:31:01.111Z,1
2023-01-19T00:32:01.073Z,1
2023-01-19T00:33:01.507Z,1
2023-01-19T00:34:01.386Z,1
2023-01-19T00:35:02.936Z,1
2023-01-19T00:36:02.711Z,1
2023-01-19T00:37:04.050Z,1
2023-01-19T00:38:01.106Z,0.9
2023-01-19T00:39:01.128Z,0.9
2023-01-19T00:40:01.194Z,0.9
2023-01-19T00:41:01.307Z,0.8
2023-01-19T00:42:01.524Z,0.8
2023-01-19T00:43:01.814Z,0.8
2023-01-19T00:44:01.135Z,0.8
2023-01-19T00:45:01.143Z,0.8
2023-01-19T00:46:01.266Z,0.8
2023-01-19T00:47:01.315Z,0.8
2023-01-19T00:48:02.615Z,0.8
2023-01-19T00:49:01.199Z,0.8
2023-01-19T00:50:01.565Z,0.8
2023-01-19T00:51:02.708Z,0.8
2023-01-19T00:52:01.115Z,0.8
2023-01-19T00:53:01.866Z,0.8
2023-01-19T00:54:01.116Z,0.8
2023-01-19T00:55:01.133Z,0.8
2023-01-19T00:56:05.859Z,0.8
2023-01-19T00:57:01.494Z,0.8
2023-01-19T00:58:01.329Z,0.8
2023-01-19T00:59:01.162Z,0.7
2023-01-19T01:00:01.161Z,0.8
2023-01-19T01:01:08.928Z,0.7
2023-01-19T01:02:01.371Z,0.7
2023-01-19T01:03:01.514Z,0.7
2023-01-19T01:04:01.075Z,0.7
2023-01-19T01:05:01.075Z,0.7
2023-01-19T01:06:11.595Z,0.6
2023-01-19T01:07:01.064Z,0.7
2023-01-19T01:08:01.104Z,0.6
2023-01-19T01:09:01.097Z,0.6
2023-01-19T01:10:01.113Z,0.6
2023-01-19T01:11:14.257Z,0.6
2023-01-19T01:12:02.535Z,0.6
2023-01-19T01:13:20.114Z,0.6
2023-01-19T01:14:01.629Z,0.6
2023-01-19T01:15:01.154Z,0.6
2023-01-19T01:16:16.318Z,0.5
2023-01-19T01:17:01.565Z,0.5
2023-01-19T01:18:01.207Z,0.5
2023-01-19T01:19:01.200Z,0.5
2023-01-19T01:20:01.149Z,0.5
2023-01-19T01:21:01.119Z,0.5
2023-01-19T01:22:01.081Z,0.5
2023-01-19T01:23:01.594Z,0.5
2023-01-19T01:24:01.092Z,0.5
2023-01-19T01:25:01.357Z,0.5
2023-01-19T01:26:01.338Z,0.5
2023-01-19T01:27:02.131Z,0.5
2023-01-19T01:28:01.525Z,0.5
2023-01-19T01:29:00.793Z,0.5
2023-01-19T01:30:01.140Z,0.4
2023-01-19T01:31:02.149Z,0.4
2023-01-19T01:32:00.563Z,0.4
2023-01-19T01:33:01.298Z,0.3
2023-01-19T01:34:01.455Z,0.3
2023-01-19T01:35:02.191Z,0.3
2023-01-19T01:36:02.023Z,0.3
2023-01-19T01:37:01.109Z,0.3
2023-01-19T01:38:01.087Z,0.3
2023-01-19T01:39:01.091Z,0.3
2023-01-19T01:40:01.095Z,0.3
2023-01-19T01:41:01.055Z,0.3
2023-01-19T01:42:01.171Z,0.3
2023-01-19T01:43:01.810Z,0.3
2023-01-19T01:44:01.163Z,0.3
2023-01-19T01:45:01.073Z,0.3
2023-01-19T01:46:00.773Z,0.3
2023-01-19T01:47:00.511Z,0.3
2023-01-19T01:48:00.164Z,0.3
2023-01-19T01:48:59.911Z,0.3
2023-01-19T01:49:59.624Z,0.3
2023-01-19T01:51:01.351Z,0.3
2023-01-19T01:52:02.892Z,0.3
2023-01-19T01:53:06.422Z,0.3
2023-01-19T01:54:01.613Z,0.3
2023-01-19T01:55:01.315Z,0.3
2023-01-19T01:56:01.098Z,0.3
2023-01-19T01:57:01.078Z,0.3
2023-01-19T01:58:01.091Z,0.3
2023-01-19T01:59:01.111Z,0.3
2023-01-19T02:00:01.108Z,0.3
2023-01-19T02:01:01.225Z,0.3
2023-01-19T02:02:01.296Z,0.2
2023-01-19T02:03:03.459Z,0.3
2023-01-19T02:04:02.770Z,0.3
2023-01-19T02:05:01.350Z,0.3
2023-01-19T02:06:02.070Z,0.2
2023-01-19T02:07:01.305Z,0.2
2023-01-19T02:08:01.171Z,0.1
2023-01-19T02:09:01.143Z,0.1
2023-01-19T02:10:01.134Z,0.1
2023-01-19T02:11:01.069Z,0.1
2023-01-19T02:12:01.764Z,0.1
2023-01-19T02:13:01.627Z,0.1
2023-01-19T02:14:04.156Z,0.1
2023-01-19T02:15:01.675Z,0.1
2023-01-19T02:16:01.308Z,0.1
2023-01-19T02:17:01.349Z,0
2023-01-19T02:18:01.226Z,0
2023-01-19T02:19:02.649Z,0
2023-01-19T02:20:01.350Z,0
2023-01-19T02:21:01.333Z,0
2023-01-19T02:22:01.196Z,0
2023-01-19T02:23:02.545Z,0
2023-01-19T02:24:01.873Z,0
2023-01-19T02:25:01.851Z,0
2023-01-19T02:26:01.174Z,0
2023-01-19T02:27:03.939Z,0
2023-01-19T02:28:01.889Z,0
2023-01-19T02:29:01.106Z,0
2023-01-19T02:30:02.115Z,0
2023-01-19T02:31:01.283Z,0
2023-01-19T02:32:01.105Z,0
2023-01-19T02:33:01.594Z,0
2023-01-19T02:34:01.112Z,0
2023-01-19T02:35:01.138Z,0
2023-01-19T02:36:01.153Z,0
2023-01-19T02:37:01.067Z,0
2023-01-19T02:38:00.970Z,0
2023-01-19T02:39:01.191Z,0
2023-01-19T02:40:01.180Z,0
2023-01-19T02:41:01.164Z,-0.1
2023-01-19T02:42:01.181Z,0
2023-01-19T02:43:01.681Z,-0.1
2023-01-19T02:44:01.376Z,-0.1
2023-01-19T02:45:00.672Z,-0.1
2023-01-19T02:46:00.410Z,-0.1
2023-01-19T02:47:03.580Z,-0.1
2023-01-19T02:48:02.769Z,-0.1
2023-01-19T02:49:01.177Z,-0.1
2023-01-19T02:50:01.152Z,-0.2
2023-01-19T02:51:01.157Z,-0.1
2023-01-19T02:52:06.379Z,-0.2
2023-01-19T02:53:02.060Z,-0.2
2023-01-19T02:54:01.525Z,-0.2
2023-01-19T02:55:02.106Z,-0.2
2023-01-19T02:56:01.167Z,-0.2
2023-01-19T02:57:09.935Z,-0.2
2023-01-19T02:58:01.443Z,-0.2
2023-01-19T02:59:00.987Z,-0.2
2023-01-19T03:00:01.197Z,-0.2
2023-01-19T03:01:01.315Z,-0.3
2023-01-19T03:02:12.964Z,-0.2
2023-01-19T03:03:01.591Z,-0.3
2023-01-19T03:04:01.707Z,-0.3
2023-01-19T03:05:02.176Z,-0.3
2023-01-19T03:06:02.047Z,-0.3
2023-01-19T03:07:15.675Z,-0.3
2023-01-19T03:08:01.128Z,-0.3
2023-01-19T03:09:02.042Z,-0.3
2023-01-19T03:10:02.269Z,-0.3
2023-01-19T03:11:01.148Z,-0.3
2023-01-19T03:12:17.579Z,-0.3
2023-01-19T03:13:03.076Z,-0.3
2023-01-19T03:14:02.426Z,-0.3
2023-01-19T03:15:01.195Z,-0.4
2023-01-19T03:16:02.540Z,-0.4
2023-01-19T03:17:01.476Z,-0.4
2023-01-19T03:18:01.209Z,-0.4
2023-01-19T03:19:02.143Z,-0.4
2023-01-19T03:20:04.061Z,-0.5
2023-01-19T03:21:01.114Z,-0.5
2023-01-19T03:22:01.125Z,-0.4
2023-01-19T03:23:01.549Z,-0.4
2023-01-19T03:24:02.323Z,-0.5
2023-01-19T03:25:01.551Z,-0.5
2023-01-19T03:26:00.860Z,-0.4
2023-01-19T03:27:00.531Z,-0.5
2023-01-19T03:28:00.218Z,-0.5
2023-01-19T03:28:59.816Z,-0.5
2023-01-19T03:30:01.762Z,-0.5
2023-01-19T03:31:02.662Z,-0.5
2023-01-19T03:32:01.064Z,-0.5
2023-01-19T03:33:01.574Z,-0.5
2023-01-19T03:34:01.071Z,-0.5
2023-01-19T03:35:01.503Z,-0.5
2023-01-19T03:36:01.500Z,-0.5
2023-01-19T03:37:01.455Z,-0.5
2023-01-19T03:38:01.144Z,-0.6
2023-01-19T03:39:01.820Z,-0.6
2023-01-19T03:40:01.075Z,-0.6
2023-01-19T03:41:01.048Z,-0.6
2023-01-19T03:42:01.138Z,-0.6
2023-01-19T03:43:01.776Z,-0.6
2023-01-19T03:44:01.298Z,-0.6
2023-01-19T03:45:01.158Z,-0.6
2023-01-19T03:46:02.021Z,-0.7
2023-01-19T03:47:01.073Z,-0.7
2023-01-19T03:48:01.341Z,-0.8
2023-01-19T03:49:01.731Z,-0.7
2023-01-19T03:50:01.489Z,-0.8
2023-01-19T03:51:01.809Z,-0.7
2023-01-19T03:52:01.208Z,-0.8
2023-01-19T03:53:02.630Z,-0.8
2023-01-19T03:54:01.499Z,-0.7
2023-01-19T03:55:02.390Z,-0.7
2023-01-19T03:56:01.805Z,-0.7
2023-01-19T03:57:01.129Z,-0.7
2023-01-19T03:58:01.741Z,-0.8
2023-01-19T03:59:01.489Z,-0.7
2023-01-19T04:00:01.653Z,-0.7
2023-01-19T04:01:01.396Z,-0.7
2023-01-19T04:02:01.246Z,-0.7
2023-01-19T04:03:01.634Z,-0.8
2023-01-19T04:04:02.386Z,-0.7
2023-01-19T04:05:02.592Z,-0.7
2023-01-19T04:06:01.884Z,-0.7
2023-01-19T04:07:01.768Z,-0.7
2023-01-19T04:08:01.097Z,-0.8
2023-01-19T04:09:01.103Z,-0.7
2023-01-19T04:10:01.099Z,-0.7
2023-01-19T04:11:01.119Z,-0.7
2023-01-19T04:12:01.128Z,-0.8
2023-01-19T04:13:01.720Z,-0.8
2023-01-19T04:14:01.506Z,-0.8
2023-01-19T04:15:01.509Z,-0.8
2023-01-19T04:16:01.193Z,-0.9
2023-01-19T04:17:01.140Z,-0.9
2023-01-19T04:18:01.080Z,-1
2023-01-19T04:19:01.070Z,-1
2023-01-19T04:20:02.065Z,-1.1
2023-01-19T04:21:01.777Z,-1.1
2023-01-19T04:22:01.492Z,-1.1
2023-01-19T04:23:02.655Z,-1.1
2023-01-19T04:24:01.281Z,-1.1
2023-01-19T04:25:02.326Z,-1.1
2023-01-19T04:26:01.109Z,-1.1
2023-01-19T04:27:01.112Z,-1.1
2023-01-19T04:28:01.132Z,-1
2023-01-19T04:29:01.726Z,-1
2023-01-19T04:30:01.141Z,-1
2023-01-19T04:31:01.182Z,-1
2023-01-19T04:32:01.246Z,-1
2023-01-19T04:33:02.243Z,-1
2023-01-19T04:34:01.151Z,-1
2023-01-19T04:35:01.208Z,-1
2023-01-19T04:36:01.268Z,-1
2023-01-19T04:37:01.198Z,-1
2023-01-19T04:38:05.601Z,-1
2023-01-19T04:39:01.071Z,-1
2023-01-19T04:40:01.082Z,-1
2023-01-19T04:41:01.077Z,-1
2023-01-19T04:42:01.072Z,-1
2023-01-19T04:43:06.461Z,-1
2023-01-19T04:44:01.106Z,-1
2023-01-19T04:45:03.834Z,-1
2023-01-19T04:46:01.816Z,-1
2023-01-19T04:47:01.140Z,-1
2023-01-19T04:48:09.730Z,-1
2023-01-19T04:49:01.811Z,-1
2023-01-19T04:50:01.151Z,-1
2023-01-19T04:51:01.286Z,-1
2023-01-19T04:52:01.181Z,-1
2023-01-19T04:53:13.242Z,-1.1
2023-01-19T04:54:01.128Z,-1.1
2023-01-19T04:55:01.052Z,-1.1
2023-01-19T04:56:01.102Z,-1.1
2023-01-19T04:57:00.770Z,-1.1
2023-01-19T04:58:15.004Z,-1.2
2023-01-19T04:59:02.432Z,-1.2
2023-01-19T05:00:01.505Z,-1.2
2023-01-19T05:01:01.195Z,-1.2
2023-01-19T05:02:02.009Z,-1.2
2023-01-19T05:03:02.677Z,-1.2
2023-01-19T05:04:01.148Z,-1.2
2023-01-19T05:05:00.555Z,-1.1
2023-01-19T05:06:00.221Z,-1.1
2023-01-19T05:07:00.018Z,-1.1
2023-01-19T05:07:59.614Z,-1.1
2023-01-19T05:09:07.378Z,-1.1
2023-01-19T05:10:03.339Z,-1.1
2023-01-19T05:11:01.085Z,-1.1
2023-01-19T05:12:01.097Z,-1.1
2023-01-19T05:13:01.933Z,-1.1
2023-01-19T05:14:02.532Z,-1.1
2023-01-19T05:15:01.106Z,-1.1
2023-01-19T05:16:01.172Z,-1.1
2023-01-19T05:17:01.106Z,-1.1
2023-01-19T05:18:01.134Z,-1.1
2023-01-19T05:19:01.144Z,-1.1
2023-01-19T05:20:01.558Z,-1.1
2023-01-19T05:21:01.560Z,-1.1
2023-01-19T05:22:01.262Z,-1.1
2023-01-19T05:23:01.658Z,-1.1
2023-01-19T05:24:01.204Z,-1.1
2023-01-19T05:25:01.047Z,-1.2
2023-01-19T05:26:01.209Z,-1.1
2023-01-19T05:27:01.899Z,-1.2
2023-01-19T05:28:01.101Z,-1.2
2023-01-19T05:29:01.466Z,-1.2
2023-01-19T05:30:01.054Z,-1.2
2023-01-19T05:31:01.310Z,-1.2
2023-01-19T05:32:01.703Z,-1.3
2023-01-19T05:33:01.556Z,-1.3
2023-01-19T05:34:01.096Z,-1.3
2023-01-19T05:35:00.720Z,-1.3
2023-01-19T05:36:00.305Z,-1.3
2023-01-19T05:37:00.262Z,-1.3
2023-01-19T05:38:00.229Z,-1.3
2023-01-19T05:38:59.925Z,-1.3
2023-01-19T05:39:59.647Z,-1.3
2023-01-19T05:41:01.588Z,-1.3
2023-01-19T05:42:01.379Z,-1.3
2023-01-19T05:43:01.751Z,-1.3
2023-01-19T05:44:01.117Z,-1.4
2023-01-19T05:45:01.092Z,-1.3
2023-01-19T05:46:01.122Z,-1.3
2023-01-19T05:47:01.229Z,-1.3
2023-01-19T05:48:01.090Z,-1.3
2023-01-19T05:49:01.488Z,-1.3
2023-01-19T05:50:01.548Z,-1.3
2023-01-19T05:51:01.376Z,-1.3
2023-01-19T05:52:01.133Z,-1.3
2023-01-19T05:53:01.574Z,-1.3
2023-01-19T05:54:01.339Z,-1.4
2023-01-19T05:55:02.097Z,-1.4
2023-01-19T05:56:01.152Z,-1.4
2023-01-19T05:57:01.198Z,-1.4
2023-01-19T05:58:01.108Z,-1.4
2023-01-19T05:59:01.154Z,-1.4
2023-01-19T06:00:01.634Z,-1.4
2023-01-19T06:01:01.467Z,-1.3
2023-01-19T06:02:01.631Z,-1.4
2023-01-19T06:03:02.979Z,-1.3
2023-01-19T06:04:01.937Z,-1.3
2023-01-19T06:05:01.869Z,-1.3
2023-01-19T06:06:01.125Z,-1.3
2023-01-19T06:07:01.142Z,-1.3
2023-01-19T06:08:01.132Z,-1.3
2023-01-19T06:09:01.510Z,-1.3
2023-01-19T06:10:00.526Z,-1.4
2023-01-19T06:11:00.117Z,-1.3
2023-01-19T06:11:59.803Z,-1.3
2023-01-19T06:13:02.001Z,-1.3
2023-01-19T06:14:01.731Z,-1.3
2023-01-19T06:15:02.402Z,-1.3
2023-01-19T06:16:01.821Z,-1.3
2023-01-19T06:17:01.762Z,-1.3
2023-01-19T06:18:01.452Z,-1.4
2023-01-19T06:19:01.110Z,-1.4
2023-01-19T06:20:02.474Z,-1.5
2023-01-19T06:21:01.843Z,-1.5
2023-01-19T06:22:01.163Z,-1.5
2023-01-19T06:23:01.490Z,-1.5
2023-01-19T06:24:01.131Z,-1.5
2023-01-19T06:25:00.783Z,-1.5
2023-01-19T06:26:00.511Z,-1.5
2023-01-19T06:27:00.122Z,-1.5
2023-01-19T06:27:59.814Z,-1.5
2023-01-19T06:29:02.810Z,-1.5
2023-01-19T06:30:01.176Z,-1.5
2023-01-19T06:31:02.783Z,-1.5
2023-01-19T06:31:59.892Z,-1.5
2023-01-19T06:32:59.987Z,-1.5
2023-01-19T06:34:03.769Z,-1.5
2023-01-19T06:35:02.333Z,-1.5
2023-01-19T06:36:02.020Z,-1.5
2023-01-19T06:37:01.120Z,-1.5
2023-01-19T06:38:01.190Z,-1.5
2023-01-19T06:39:07.128Z,-1.5
2023-01-19T06:40:01.823Z,-1.5
2023-01-19T06:41:02.054Z,-1.5
2023-01-19T06:42:01.069Z,-1.5
2023-01-19T06:43:01.713Z,-1.6
2023-01-19T06:44:10.006Z,-1.5
2023-01-19T06:45:00.857Z,-1.5
2023-01-19T06:46:01.257Z,-1.5
2023-01-19T06:47:14.677Z,-1.5
2023-01-19T06:48:01.101Z,-1.6
2023-01-19T06:49:11.426Z,-1.6
2023-01-19T06:50:01.594Z,-1.6
2023-01-19T06:51:01.768Z,-1.6
2023-01-19T06:52:01.006Z,-1.6
2023-01-19T06:53:01.526Z,-1.6
2023-01-19T06:54:16.234Z,-1.6
2023-01-19T06:55:01.814Z,-1.6
2023-01-19T06:56:01.180Z,-1.6
2023-01-19T06:57:02.754Z,-1.6
2023-01-19T06:58:01.700Z,-1.6
2023-01-19T06:59:01.442Z,-1.6
2023-01-19T07:00:01.084Z,-1.6
2023-01-19T07:01:01.129Z,-1.6
2023-01-19T07:01:59.911Z,-1.7
2023-01-19T07:03:02.752Z,-1.8
2023-01-19T07:04:01.062Z,-1.8
2023-01-19T07:05:00.744Z,-1.8
2023-01-19T07:06:00.358Z,-1.8
2023-01-19T07:06:59.952Z,-1.8
2023-01-19T07:07:59.555Z,-1.9
2023-01-19T07:09:01.199Z,-1.9
2023-01-19T07:10:00.910Z,-1.9
2023-01-19T07:11:24.892Z,-1.9
2023-01-19T07:12:01.330Z,-1.9
2023-01-19T07:13:02.520Z,-1.9
2023-01-19T07:14:01.705Z,-2
2023-01-19T07:15:01.174Z,-2
2023-01-19T07:16:01.150Z,-2.1
2023-01-19T07:17:01.116Z,-2
2023-01-19T07:18:01.170Z,-2
2023-01-19T07:19:01.087Z,-2
2023-01-19T07:20:01.084Z,-2
2023-01-19T07:21:01.073Z,-2
2023-01-19T07:22:01.074Z,-2
2023-01-19T07:23:01.559Z,-2
2023-01-19T07:24:01.171Z,-2
2023-01-19T07:25:01.092Z,-2
2023-01-19T07:26:01.107Z,-2
2023-01-19T07:27:01.138Z,-1.9
2023-01-19T07:28:01.137Z,-1.8
2023-01-19T07:29:01.130Z,-1.8
2023-01-19T07:30:01.071Z,-1.8
2023-01-19T07:31:01.327Z,-1.8
2023-01-19T07:32:02.577Z,-1.8
2023-01-19T07:33:03.361Z,-1.9
2023-01-19T07:34:01.446Z,-1.9
2023-01-19T07:35:01.158Z,-2
2023-01-19T07:36:00.800Z,-2
2023-01-19T07:37:00.455Z,-2
2023-01-19T07:38:00.115Z,-2
2023-01-19T07:38:59.854Z,-2.1
2023-01-19T07:40:01.645Z,-2.1
2023-01-19T07:41:00.783Z,-2
2023-01-19T07:42:00.398Z,-2
2023-01-19T07:43:00.387Z,-2
2023-01-19T07:44:00.303Z,-2
2023-01-19T07:44:59.876Z,-2
2023-01-19T07:46:01.600Z,-2
2023-01-19T07:47:01.161Z,-2
2023-01-19T07:48:01.156Z,-2
2023-01-19T07:49:01.182Z,-2
2023-01-19T07:50:01.153Z,-2
2023-01-19T07:51:01.157Z,-2
2023-01-19T07:52:01.164Z,-1.9
2023-01-19T07:53:01.448Z,-1.9
2023-01-19T07:54:01.898Z,-1.9
2023-01-19T07:55:01.755Z,-1.9
2023-01-19T07:56:01.087Z,-1.9
2023-01-19T07:57:01.107Z,-2
2023-01-19T07:58:01.114Z,-2
2023-01-19T07:59:01.082Z,-2
2023-01-19T08:00:00.659Z,-2
2023-01-19T08:01:00.672Z,-1.9
2023-01-19T08:02:00.290Z,-1.9
2023-01-19T08:03:00.629Z,-1.8
2023-01-19T08:04:01.936Z,-1.8
2023-01-19T08:05:01.129Z,-1.9
2023-01-19T08:06:01.764Z,-2
2023-01-19T08:07:01.589Z,-2
2023-01-19T08:08:01.234Z,-2
2023-01-19T08:09:02.825Z,-2
2023-01-19T08:10:01.324Z,-1.9
2023-01-19T08:11:01.099Z,-1.9
2023-01-19T08:12:01.079Z,-1.9
2023-01-19T08:13:01.422Z,-1.8
2023-01-19T08:14:01.799Z,-1.8
2023-01-19T08:15:01.750Z,-1.8
2023-01-19T08:16:01.605Z,-1.7
2023-01-19T08:17:02.595Z,-1.6
2023-01-19T08:18:01.672Z,-1.6
2023-01-19T08:19:01.197Z,-1.6
2023-01-19T08:20:03.263Z,-1.6
2023-01-19T08:21:00.941Z,-1.5
2023-01-19T08:22:00.626Z,-1.5
2023-01-19T08:23:00.953Z,-1.6
2023-01-19T08:24:01.227Z,-1.6
2023-01-19T08:25:05.354Z,-1.6
2023-01-19T08:26:00.552Z,-1.6
2023-01-19T08:27:00.317Z,-1.6
2023-01-19T08:27:59.923Z,-1.6
2023-01-19T08:28:59.539Z,-1.7
2023-01-19T08:30:09.218Z,-1.6
2023-01-19T08:31:11.173Z,-1.6
2023-01-19T08:32:00.417Z,-1.6
2023-01-19T08:33:00.689Z,-1.6
2023-01-19T08:34:00.817Z,-1.5
2023-01-19T08:35:11.095Z,-1.6
2023-01-19T08:36:01.527Z,-1.5
2023-01-19T08:37:01.291Z,-1.5
2023-01-19T08:38:01.172Z,-1.5
2023-01-19T08:39:01.158Z,-1.5
2023-01-19T08:40:14.004Z,-1.5
2023-01-19T08:41:01.153Z,-1.5
2023-01-19T08:42:01.137Z,-1.5
2023-01-19T08:43:01.562Z,-1.5
2023-01-19T08:44:01.454Z,-1.5
2023-01-19T08:45:16.762Z,-1.5
2023-01-19T08:46:01.181Z,-1.5
2023-01-19T08:47:02.085Z,-1.5
2023-01-19T08:48:02.479Z,-1.5
2023-01-19T08:49:01.069Z,-1.5
2023-01-19T08:50:01.076Z,-1.4
2023-01-19T08:51:01.149Z,-1.4
2023-01-19T08:52:01.573Z,-1.3
2023-01-19T08:53:01.705Z,-1.3
2023-01-19T08:54:02.289Z,-1.2
2023-01-19T08:55:01.170Z,-1.1
2023-01-19T08:56:01.182Z,-1.1
2023-01-19T08:57:01.386Z,-1.1
2023-01-19T08:58:01.531Z,-1
2023-01-19T08:59:09.235Z,-1
2023-01-19T09:00:01.893Z,-1
2023-01-19T09:01:03.008Z,-1
2023-01-19T09:02:00.495Z,-0.9
2023-01-19T09:03:00.735Z,-0.9
2023-01-19T09:04:01.101Z,-0.8
2023-01-19T09:05:01.108Z,-0.8
2023-01-19T09:06:01.130Z,-0.8
2023-01-19T09:07:01.116Z,-0.8
2023-01-19T09:08:01.525Z,-0.8
2023-01-19T09:09:01.146Z,-0.8
2023-01-19T09:10:01.149Z,-0.8
2023-01-19T09:11:01.527Z,-0.8
2023-01-19T09:12:01.152Z,-0.7
2023-01-19T09:13:01.166Z,-0.8
2023-01-19T09:14:01.080Z,-0.8
2023-01-19T09:15:01.085Z,-0.7
2023-01-19T09:16:01.396Z,-0.8
2023-01-19T09:17:01.465Z,-0.8
2023-01-19T09:18:01.593Z,-0.8
2023-01-19T09:19:01.096Z,-0.8
2023-01-19T09:20:01.092Z,-0.8
2023-01-19T09:21:01.222Z,-0.8
2023-01-19T09:22:02.056Z,-0.8
2023-01-19T09:23:01.989Z,-0.8
2023-01-19T09:24:01.174Z,-0.8
2023-01-19T09:25:01.152Z,-0.8
2023-01-19T09:26:01.094Z,-0.8
2023-01-19T09:27:00.721Z,-0.7
2023-01-19T09:28:00.960Z,-0.7
2023-01-19T09:29:01.667Z,-0.7
2023-01-19T09:30:01.098Z,-0.6
2023-01-19T09:31:01.959Z,-0.6
2023-01-19T09:32:00.136Z,-0.6
2023-01-19T09:32:59.737Z,-0.6
2023-01-19T09:34:01.378Z,-0.6
2023-01-19T09:35:02.224Z,-0.6
2023-01-19T09:36:02.743Z,-0.6
2023-01-19T09:37:01.109Z,-0.6
2023-01-19T09:38:01.473Z,-0.6
2023-01-19T09:39:01.110Z,-0.7
2023-01-19T09:40:01.254Z,-0.7
2023-01-19T09:41:00.924Z,-0.7
2023-01-19T09:42:00.607Z,-0.6
2023-01-19T09:43:00.411Z,-0.6
2023-01-19T09:44:00.055Z,-0.6
2023-01-19T09:44:59.715Z,-0.6
2023-01-19T09:46:01.425Z,-0.6
2023-01-19T09:47:02.180Z,-0.6
2023-01-19T09:48:01.374Z,-0.6
2023-01-19T09:49:01.069Z,-0.6
2023-01-19T09:50:01.103Z,-0.6
2023-01-19T09:51:01.097Z,-0.6
2023-01-19T09:52:01.099Z,-0.6
2023-01-19T09:53:01.549Z,-0.6
2023-01-19T09:54:02.570Z,-0.6
2023-01-19T09:55:01.424Z,-0.6
2023-01-19T09:56:02.129Z,-0.6
2023-01-19T09:57:01.139Z,-0.6
2023-01-19T09:58:01.673Z,-0.5
2023-01-19T09:59:01.449Z,-0.5
2023-01-19T10:00:01.576Z,-0.5
2023-01-19T10:01:01.412Z,-0.5
2023-01-19T10:02:01.166Z,-0.4
2023-01-19T10:03:01.484Z,-0.4
2023-01-19T10:04:01.048Z,-0.4
2023-01-19T10:05:01.080Z,-0.3
2023-01-19T10:06:01.091Z,-0.3
2023-01-19T10:07:01.382Z,-0.3
2023-01-19T10:08:01.990Z,-0.3
2023-01-19T10:09:04.489Z,-0.3
2023-01-19T10:10:02.120Z,-0.3
2023-01-19T10:11:03.998Z,-0.3
2023-01-19T10:12:02.034Z,-0.4
2023-01-19T10:13:01.595Z,-0.4
2023-01-19T10:14:01.244Z,-0.3
2023-01-19T10:15:01.134Z,-0.3
2023-01-19T10:16:05.703Z,-0.3
2023-01-19T10:17:01.548Z,-0.3
2023-01-19T10:18:02.878Z,-0.3
2023-01-19T10:19:02.276Z,-0.3
2023-01-19T10:20:01.071Z,-0.3
2023-01-19T10:21:09.880Z,-0.3
2023-01-19T10:22:01.561Z,-0.3
2023-01-19T10:23:01.425Z,-0.3
2023-01-19T10:24:01.799Z,-0.2
2023-01-19T10:25:01.220Z,-0.2
2023-01-19T10:26:11.721Z,-0.2
2023-01-19T10:27:01.612Z,-0.2
2023-01-19T10:28:02.169Z,-0.1
2023-01-19T10:29:01.223Z,-0.1
2023-01-19T10:30:01.154Z,-0.1
2023-01-19T10:31:14.638Z,-0.1
2023-01-19T10:32:00.400Z,-0.1
2023-01-19T10:33:00.827Z,-0.1
2023-01-19T10:34:01.613Z,-0.1
2023-01-19T10:35:01.539Z,-0.1
2023-01-19T10:36:17.139Z,-0.1
2023-01-19T10:37:01.076Z,-0.1
2023-01-19T10:38:01.122Z,-0.1
2023-01-19T10:39:01.123Z,-0.1
2023-01-19T10:40:01.110Z,-0.1
2023-01-19T10:41:00.783Z,0
2023-01-19T10:42:00.647Z,0
2023-01-19T10:43:00.980Z,0
2023-01-19T10:44:02.365Z,0
2023-01-19T10:45:01.325Z,0
2023-01-19T10:46:02.252Z,0
2023-01-19T10:47:01.163Z,0
2023-01-19T10:48:01.132Z,0
2023-01-19T10:49:01.221Z,0
2023-01-19T10:50:01.427Z,0
2023-01-19T10:51:01.181Z,0
2023-01-19T10:52:01.193Z,0
2023-01-19T10:53:01.483Z,0
2023-01-19T10:54:01.135Z,0
2023-01-19T10:55:01.094Z,0
2023-01-19T10:56:01.122Z,0
2023-01-19T10:57:01.133Z,0
2023-01-19T10:58:01.744Z,0
2023-01-19T10:59:01.078Z,0
2023-01-19T11:00:01.147Z,0
2023-01-19T11:01:01.037Z,0
2023-01-19T11:02:01.318Z,0.1
2023-01-19T11:03:01.680Z,0.1
2023-01-19T11:04:01.076Z,0.1
2023-01-19T11:05:01.163Z,0.1
2023-01-19T11:06:01.855Z,0.1
2023-01-19T11:07:00.741Z,0.1
2023-01-19T11:08:01.178Z,0.1
2023-01-19T11:09:00.982Z,0.2
2023-01-19T11:10:01.081Z,0.2
2023-01-19T11:11:01.089Z,0.2
2023-01-19T11:12:01.087Z,0.2
2023-01-19T11:13:01.759Z,0.3
2023-01-19T11:14:01.140Z,0.3
2023-01-19T11:15:00.499Z,0.3
2023-01-19T11:16:00.412Z,0.3
2023-01-19T11:17:00.199Z,0.3
2023-01-19T11:18:00.025Z,0.3
2023-01-19T11:18:59.608Z,0.4
2023-01-19T11:20:01.354Z,0.3
2023-01-19T11:21:01.142Z,0.3
2023-01-19T11:22:01.061Z,0.3
2023-01-19T11:23:01.952Z,0.4
2023-01-19T11:24:01.188Z,0.4
2023-01-19T11:25:01.170Z,0.4
2023-01-19T11:26:01.817Z,0.4
2023-01-19T11:27:01.592Z,0.4
2023-01-19T11:28:01.789Z,0.4
2023-01-19T11:29:01.764Z,0.4
2023-01-19T11:30:01.202Z,0.4
2023-01-19T11:31:01.269Z,0.4
2023-01-19T11:32:00.466Z,0.4
2023-01-19T11:33:01.099Z,0.5
2023-01-19T11:34:01.965Z,0.5
2023-01-19T11:35:01.233Z,0.5
2023-01-19T11:36:01.304Z,0.5
2023-01-19T11:37:02.479Z,0.5
2023-01-19T11:38:01.366Z,0.5
2023-01-19T11:39:01.434Z,0.5
2023-01-19T11:40:02.076Z,0.5
2023-01-19T11:41:01.297Z,0.5
2023-01-19T11:42:00.821Z,0.5
2023-01-19T11:43:00.795Z,0.5
2023-01-19T11:44:01.361Z,0.6
2023-01-19T11:45:01.122Z,0.6
2023-01-19T11:46:01.132Z,0.6
2023-01-19T11:47:01.816Z,0.6
2023-01-19T11:48:02.240Z,0.6
2023-01-19T11:49:02.546Z,0.6
2023-01-19T11:50:01.521Z,0.6
2023-01-19T11:51:01.185Z,0.6
2023-01-19T11:52:03.160Z,0.6
2023-01-19T11:53:01.151Z,0.7
2023-01-19T11:54:01.154Z,0.7
2023-01-19T11:55:01.148Z,0.8
2023-01-19T11:56:01.167Z,0.7
2023-01-19T11:57:06.143Z,0.7
2023-01-19T11:58:02.029Z,0.7
2023-01-19T11:59:01.119Z,0.8
2023-01-19T12:00:01.089Z,0.8
2023-01-19T12:01:01.039Z,0.8
2023-01-19T12:02:08.091Z,0.8
2023-01-19T12:03:02.013Z,0.8
2023-01-19T12:04:01.827Z,0.8
2023-01-19T12:05:01.353Z,0.8
2023-01-19T12:06:01.351Z,0.9
2023-01-19T12:07:11.877Z,0.9
2023-01-19T12:08:06.449Z,0.9
2023-01-19T12:09:01.140Z,0.9
2023-01-19T12:10:01.150Z,0.9
2023-01-19T12:11:01.143Z,0.9
2023-01-19T12:12:14.878Z,0.9
2023-01-19T12:13:01.163Z,0.8
2023-01-19T12:14:01.563Z,0.8
2023-01-19T12:15:01.190Z,0.8
2023-01-19T12:16:01.070Z,0.8
2023-01-19T12:17:01.073Z,0.9
2023-01-19T12:18:01.515Z,0.8
2023-01-19T12:19:01.113Z,0.8
2023-01-19T12:20:01.090Z,0.8
2023-01-19T12:21:03.882Z,0.9
2023-01-19T12:22:01.625Z,0.9
2023-01-19T12:23:01.141Z,0.9
2023-01-19T12:24:01.610Z,0.9
2023-01-19T12:25:01.298Z,1
2023-01-19T12:26:01.178Z,1
2023-01-19T12:27:00.760Z,1
2023-01-19T12:28:00.441Z,1
2023-01-19T12:29:00.091Z,1
2023-01-19T12:29:59.883Z,1
2023-01-19T12:31:00.076Z,1.1
2023-01-19T12:31:59.979Z,1
2023-01-19T12:32:59.726Z,1
2023-01-19T12:34:02.308Z,1.1
2023-01-19T12:35:01.780Z,1
2023-01-19T12:36:01.129Z,1.1
2023-01-19T12:37:01.071Z,1.1
2023-01-19T12:38:01.129Z,1.1
2023-01-19T12:39:01.126Z,1.1
2023-01-19T12:40:01.158Z,1.1
2023-01-19T12:41:01.132Z,1.2
2023-01-19T12:42:01.143Z,1.1
2023-01-19T12:43:01.168Z,1.2
2023-01-19T12:44:01.419Z,1.2
2023-01-19T12:45:02.480Z,1.2
2023-01-19T12:46:01.270Z,1.3
2023-01-19T12:47:01.061Z,1.3
2023-01-19T12:48:01.083Z,1.3
2023-01-19T12:49:01.113Z,1.3
2023-01-19T12:50:01.095Z,1.3
2023-01-19T12:51:00.843Z,1.3
2023-01-19T12:52:00.399Z,1.2
2023-01-19T12:53:00.119Z,1.1
2023-01-19T12:53:59.732Z,1.1
2023-01-19T12:55:02.311Z,1.1
2023-01-19T12:56:01.909Z,1.1
2023-01-19T12:57:02.555Z,1
2023-01-19T12:58:01.356Z,1
2023-01-19T12:59:02.583Z,1
2023-01-19T13:00:01.252Z,1
2023-01-19T13:01:01.561Z,1
2023-01-19T13:02:01.469Z,1
2023-01-19T13:03:01.235Z,1
2023-01-19T13:04:01.069Z,1
2023-01-19T13:05:01.085Z,1.1
2023-01-19T13:06:01.078Z,1.1
2023-01-19T13:07:01.059Z,1.1
2023-01-19T13:08:01.094Z,1.1
2023-01-19T13:09:01.566Z,1.2
2023-01-19T13:10:01.111Z,1.2
2023-01-19T13:11:01.107Z,1.3
2023-01-19T13:12:01.220Z,1.3
2023-01-19T13:13:01.074Z,1.3
2023-01-19T13:14:01.086Z,1.5
2023-01-19T13:15:01.272Z,1.5
2023-01-19T13:16:01.217Z,1.5
2023-01-19T13:17:01.202Z,1.5
2023-01-19T13:18:01.363Z,1.5
2023-01-19T13:19:02.351Z,1.5
2023-01-19T13:20:02.731Z,1.5
2023-01-19T13:21:02.139Z,1.5
2023-01-19T13:22:01.504Z,1.5
2023-01-19T13:23:00.876Z,1.5
2023-01-19T13:24:01.532Z,1.5
2023-01-19T13:25:01.545Z,1.5
2023-01-19T13:26:01.235Z,1.5
2023-01-19T13:27:01.064Z,1.5
2023-01-19T13:28:01.130Z,1.5
2023-01-19T13:29:01.175Z,1.5
2023-01-19T13:30:01.803Z,1.5
2023-01-19T13:31:01.249Z,1.5
2023-01-19T13:32:01.133Z,1.5
2023-01-19T13:33:01.140Z,1.5
2023-01-19T13:34:01.373Z,1.5
2023-01-19T13:35:01.545Z,1.5
2023-01-19T13:36:01.090Z,1.5
2023-01-19T13:37:01.080Z,1.5
2023-01-19T13:38:03.994Z,1.6
2023-01-19T13:39:01.114Z,1.6
2023-01-19T13:40:01.593Z,1.6